createdAt,value
2023-05-10T00:01:53.977Z,3.63
2023-05-10T00:04:21.564Z,3.60
2023-05-10T00:06:49.123Z,3.28
2023-05-10T00:09:16.287Z,3.70
2023-05-10T00:11:43.546Z,3.20
2023-05-10T00:14:10.868Z,3.45
2023-05-10T00:16:38.150Z,3.85
2023-05-10T00:19:05.374Z,3.65
2023-05-10T00:21:33.612Z,3.10
2023-05-10T00:24:01.382Z,2.72
2023-05-10T00:26:28.681Z,3.47
2023-05-10T00:28:55.976Z,3.55
2023-05-10T00:31:23.213Z,3.83
2023-05-10T00:33:50.448Z,3.03
2023-05-10T00:36:17.641Z,3.97
2023-05-10T00:38:44.940Z,3.22
2023-05-10T00:41:12.094Z,3.25
2023-05-10T00:43:39.421Z,3.28
2023-05-10T00:46:07.284Z,2.88
2023-05-10T00:48:34.988Z,3.13
2023-05-10T00:51:03.232Z,3.55
2023-05-10T00:53:35.642Z,2.97
2023-05-10T00:56:04.604Z,3.60
2023-05-10T00:58:32.519Z,2.95
2023-05-10T01:01:01.819Z,3.38
2023-05-10T01:03:29.699Z,3.13
2023-05-10T01:05:58.723Z,3.00
2023-05-10T01:08:27.378Z,2.83
2023-05-10T01:10:55.343Z,3.10
2023-05-10T01:13:34.624Z,2.70
2023-05-10T01:16:05.420Z,2.80
2023-05-10T01:18:36.989Z,2.40
2023-05-10T01:21:16.697Z,2.95
2023-05-10T01:24:30.726Z,2.92
2023-05-10T01:27:19.196Z,2.80
2023-05-10T01:30:14.862Z,2.78
2023-05-10T01:32:49.197Z,2.67
2023-05-10T01:35:53.033Z,2.83
2023-05-10T01:38:52.598Z,2.70
2023-05-10T01:41:31.545Z,3.55
2023-05-10T01:44:01.813Z,2.83
2023-05-10T01:46:53.858Z,2.63
2023-05-10T01:49:34.944Z,2.85
2023-05-10T01:52:09.979Z,2.80
2023-05-10T01:54:44.334Z,2.65
2023-05-10T01:57:15.623Z,2.45
2023-05-10T01:59:46.981Z,2.40
2023-05-10T02:02:16.503Z,2.92
2023-05-10T02:04:45.043Z,3.15
2023-05-10T02:07:13.652Z,2.92
2023-05-10T02:09:42.763Z,2.80
2023-05-10T02:12:10.922Z,3.25
2023-05-10T02:14:38.938Z,3.33
2023-05-10T02:17:08.083Z,3.03
2023-05-10T02:19:38.235Z,2.70
2023-05-10T02:22:06.527Z,2.90
2023-05-10T02:24:35.276Z,3.85
2023-05-10T02:27:04.940Z,3.17
2023-05-10T02:29:33.955Z,3.33
2023-05-10T02:32:02.024Z,2.45
2023-05-10T02:34:29.897Z,3.03
2023-05-10T02:36:58.247Z,2.67
2023-05-10T02:39:26.426Z,2.88
2023-05-10T02:41:55.060Z,2.17
2023-05-10T02:44:24.101Z,2.45
2023-05-10T02:46:51.681Z,2.30
2023-05-10T02:49:20.038Z,2.70
2023-05-10T02:51:52.944Z,2.40
2023-05-10T02:54:24.611Z,2.53
2023-05-10T02:57:05.275Z,2.63
2023-05-10T02:59:34.036Z,2.25
2023-05-10T03:02:02.319Z,2.00
2023-05-10T03:04:29.565Z,1.75
2023-05-10T03:06:57.717Z,1.83
2023-05-10T03:09:25.134Z,2.10
2023-05-10T03:12:20.490Z,2.08
2023-05-10T03:15:02.894Z,2.38
2023-05-10T03:17:45.374Z,2.17
2023-05-10T03:20:14.512Z,2.15
2023-05-10T03:22:47.564Z,2.50
2023-05-10T03:25:18.187Z,2.60
2023-05-10T03:27:46.666Z,2.78
2023-05-10T03:30:15.397Z,2.00
2023-05-10T03:32:43.116Z,2.08
2023-05-10T03:35:11.053Z,2.67
2023-05-10T03:37:38.283Z,2.70
2023-05-10T03:40:05.964Z,2.60
2023-05-10T03:42:33.453Z,2.72
2023-05-10T03:45:00.664Z,2.90
2023-05-10T03:47:27.821Z,2.30
2023-05-10T03:49:55.016Z,2.30
2023-05-10T03:52:22.137Z,2.63
2023-05-10T03:54:49.352Z,2.67
2023-05-10T03:57:16.579Z,2.42
2023-05-10T03:59:43.809Z,2.78
2023-05-10T04:02:11.024Z,2.55
2023-05-10T04:04:38.201Z,2.38
2023-05-10T04:07:05.596Z,2.08
2023-05-10T04:09:32.951Z,2.25
2023-05-10T04:12:02.078Z,2.13
2023-05-10T04:14:29.621Z,2.63
2023-05-10T04:16:56.855Z,1.83
2023-05-10T04:19:24.439Z,2.65
2023-05-10T04:21:51.659Z,2.20
2023-05-10T04:24:18.847Z,2.88
2023-05-10T04:26:46.938Z,2.65
2023-05-10T04:29:14.090Z,2.38
2023-05-10T04:31:41.400Z,3.20
2023-05-10T04:34:08.690Z,2.40
2023-05-10T04:36:37.192Z,1.95
2023-05-10T04:39:05.448Z,2.22
2023-05-10T04:41:32.953Z,2.70
2023-05-10T04:44:00.164Z,2.38
2023-05-10T04:46:27.442Z,2.42
2023-05-10T04:48:54.595Z,2.35
2023-05-10T04:51:22.050Z,2.25
2023-05-10T04:54:01.552Z,2.45
2023-05-10T04:56:32.154Z,2.65
2023-05-10T04:58:59.302Z,2.45
2023-05-10T05:01:26.655Z,2.58
2023-05-10T05:03:54.369Z,3.20
2023-05-10T05:06:22.499Z,2.35
2023-05-10T05:08:50.801Z,2.50
2023-05-10T05:11:19.137Z,2.60
2023-05-10T05:13:46.538Z,3.05
2023-05-10T05:16:14.146Z,2.38
2023-05-10T05:18:41.433Z,2.75
2023-05-10T05:21:19.224Z,2.03
2023-05-10T05:23:46.950Z,2.50
2023-05-10T05:26:14.278Z,2.60
2023-05-10T05:28:41.522Z,2.83
2023-05-10T05:31:09.537Z,2.80
2023-05-10T05:33:36.987Z,2.40
2023-05-10T05:36:06.006Z,2.38
2023-05-10T05:38:33.478Z,2.70
2023-05-10T05:41:00.790Z,2.78
2023-05-10T05:43:28.018Z,2.50
2023-05-10T05:45:55.681Z,2.22
2023-05-10T05:48:22.919Z,2.50
2023-05-10T05:50:50.222Z,2.67
2023-05-10T05:53:18.230Z,2.35
2023-05-10T05:55:56.221Z,2.20
2023-05-10T05:58:24.053Z,2.97
2023-05-10T06:00:53.292Z,2.35
2023-05-10T06:03:21.078Z,2.85
2023-05-10T06:05:49.152Z,2.40
2023-05-10T06:08:16.716Z,2.90
2023-05-10T06:10:44.148Z,2.25
2023-05-10T06:13:11.675Z,2.20
2023-05-10T06:15:39.595Z,2.10
2023-05-10T06:18:08.179Z,2.58
2023-05-10T06:20:36.620Z,2.42
2023-05-10T06:23:03.784Z,2.35
2023-05-10T06:25:34.183Z,2.20
2023-05-10T06:28:01.628Z,2.00
2023-05-10T06:30:30.885Z,2.97
2023-05-10T06:32:58.178Z,2.85
2023-05-10T06:35:25.803Z,2.40
2023-05-10T06:37:53.546Z,2.53
2023-05-10T06:40:21.058Z,2.58
2023-05-10T06:42:49.874Z,2.60
2023-05-10T06:45:17.513Z,2.05
2023-05-10T06:47:45.532Z,2.53
2023-05-10T06:50:13.324Z,2.17
2023-05-10T06:52:41.027Z,2.63
2023-05-10T06:55:08.316Z,2.40
2023-05-10T06:57:35.749Z,2.30
2023-05-10T07:00:05.635Z,2.53
2023-05-10T07:02:33.298Z,2.30
2023-05-10T07:05:02.764Z,2.42
2023-05-10T07:07:31.461Z,2.47
2023-05-10T07:09:59.983Z,2.78
2023-05-10T07:12:27.575Z,2.92
2023-05-10T07:14:54.857Z,2.50
2023-05-10T07:17:22.284Z,2.65
2023-05-10T07:19:50.036Z,1.98
2023-05-10T07:22:18.399Z,2.40
2023-05-10T07:24:45.812Z,2.45
2023-05-10T07:27:14.336Z,2.60
2023-05-10T07:29:41.644Z,2.55
2023-05-10T07:32:09.027Z,2.47
2023-05-10T07:34:36.555Z,1.90
2023-05-10T07:37:03.871Z,2.33
2023-05-10T07:39:31.225Z,2.22
2023-05-10T07:41:58.471Z,2.35
2023-05-10T07:44:25.866Z,2.42
2023-05-10T07:46:53.539Z,2.15
2023-05-10T07:49:21.060Z,2.10
2023-05-10T07:51:48.508Z,2.13
2023-05-10T07:54:16.128Z,2.20
2023-05-10T07:56:47.439Z,2.20
2023-05-10T07:59:19.234Z,2.30
2023-05-10T08:01:46.636Z,2.30
2023-05-10T08:04:14.044Z,2.33
2023-05-10T08:06:42.008Z,2.22
2023-05-10T08:09:10.180Z,2.55
2023-05-10T08:11:37.590Z,2.70
2023-05-10T08:14:04.892Z,2.70
2023-05-10T08:16:32.386Z,3.17
2023-05-10T08:18:59.893Z,3.90
2023-05-10T08:21:27.722Z,2.97
2023-05-10T08:23:54.981Z,2.50
2023-05-10T08:26:23.126Z,2.58
2023-05-10T08:28:50.501Z,2.35
2023-05-10T08:31:17.912Z,2.72
2023-05-10T08:33:45.645Z,2.83
2023-05-10T08:36:15.474Z,2.50
2023-05-10T08:38:42.837Z,2.58
2023-05-10T08:41:11.784Z,3.85
2023-05-10T08:43:40.277Z,2.15
2023-05-10T08:46:10.331Z,1.88
2023-05-10T08:48:39.036Z,2.08
2023-05-10T08:51:06.823Z,2.08
2023-05-10T08:53:38.068Z,2.03
2023-05-10T08:56:05.814Z,1.92
2023-05-10T08:58:33.829Z,7.18
2023-05-10T09:01:02.163Z,2.78
2023-05-10T09:03:29.467Z,2.35
2023-05-10T09:06:00.071Z,2.45
2023-05-10T09:08:28.370Z,1.83
2023-05-10T09:10:59.425Z,1.75
2023-05-10T09:13:27.684Z,2.03
2023-05-10T09:15:55.385Z,2.00
2023-05-10T09:18:22.804Z,1.90
2023-05-10T09:20:50.795Z,2.40
2023-05-10T09:23:18.252Z,2.55
2023-05-10T09:25:45.740Z,6.97
2023-05-10T09:28:13.437Z,2.30
2023-05-10T09:30:41.391Z,2.70
2023-05-10T09:33:09.295Z,2.15
2023-05-10T09:35:37.690Z,2.67
2023-05-10T09:38:06.686Z,2.40
2023-05-10T09:40:34.604Z,2.70
2023-05-10T09:43:09.052Z,2.30
2023-05-10T09:45:38.875Z,2.45
2023-05-10T09:48:07.994Z,2.55
2023-05-10T09:50:35.708Z,2.10
2023-05-10T09:53:05.115Z,2.78
2023-05-10T09:55:48.172Z,2.55
2023-05-10T09:58:15.901Z,2.30
2023-05-10T10:00:49.210Z,2.40
2023-05-10T10:03:21.456Z,2.45
2023-05-10T10:05:50.163Z,2.42
2023-05-10T10:08:18.163Z,2.03
2023-05-10T10:10:48.390Z,2.22
2023-05-10T10:13:17.144Z,1.95
2023-05-10T10:15:45.936Z,2.00
2023-05-10T10:18:18.888Z,2.53
2023-05-10T10:20:47.087Z,2.40
2023-05-10T10:23:16.550Z,2.30
2023-05-10T10:25:45.868Z,1.80
2023-05-10T10:28:23.138Z,1.90
2023-05-10T10:30:52.795Z,2.20
2023-05-10T10:33:27.757Z,2.30
2023-05-10T10:35:59.272Z,2.53
2023-05-10T10:38:26.932Z,1.77
2023-05-10T10:41:04.208Z,2.00
2023-05-10T10:43:31.511Z,2.35
2023-05-10T10:46:18.825Z,1.92
2023-05-10T10:49:10.121Z,1.90
2023-05-10T10:51:41.175Z,1.58
2023-05-10T10:54:12.969Z,1.92
2023-05-10T10:56:39.733Z,1.92
2023-05-10T10:59:06.755Z,5.20
2023-05-10T11:01:36.897Z,2.22
2023-05-10T11:04:06.590Z,2.15
2023-05-10T11:06:35.385Z,2.30
2023-05-10T11:09:10.739Z,2.38
2023-05-10T11:11:50.615Z,1.67
2023-05-10T11:14:23.222Z,1.88
2023-05-10T11:16:50.521Z,1.83
2023-05-10T11:19:19.541Z,1.85
2023-05-10T11:21:51.765Z,1.75
2023-05-10T11:24:24.131Z,1.45
2023-05-10T11:26:52.940Z,1.80
2023-05-10T11:29:19.964Z,1.88
2023-05-10T11:31:48.432Z,1.73
2023-05-10T11:34:26.853Z,2.00
2023-05-10T11:36:56.086Z,1.88
2023-05-10T11:39:28.200Z,2.35
2023-05-10T11:41:56.003Z,2.03
2023-05-10T11:44:23.239Z,2.72
2023-05-10T11:46:50.700Z,1.60
2023-05-10T11:49:18.114Z,1.85
2023-05-10T11:51:45.226Z,2.28
2023-05-10T11:54:13.100Z,1.80
2023-05-10T11:56:41.484Z,1.60
2023-05-10T11:59:09.603Z,1.95
2023-05-10T12:01:37.540Z,2.10
2023-05-10T12:04:05.170Z,2.13
2023-05-10T12:06:35.759Z,1.73
2023-05-10T12:09:07.670Z,2.03
2023-05-10T12:11:40.560Z,1.67
2023-05-10T12:14:10.353Z,1.67
2023-05-10T12:16:37.606Z,1.70
2023-05-10T12:19:04.996Z,2.10
2023-05-10T12:21:32.716Z,2.03
2023-05-10T12:24:09.055Z,1.90
2023-05-10T12:26:37.127Z,1.80
2023-05-10T12:29:18.492Z,1.88
2023-05-10T12:31:54.933Z,2.17
2023-05-10T12:34:34.247Z,2.05
2023-05-10T12:37:02.328Z,1.63
2023-05-10T12:39:49.824Z,2.03
2023-05-10T12:42:17.960Z,1.80
2023-05-10T12:44:45.412Z,1.80
2023-05-10T12:47:12.612Z,1.60
2023-05-10T12:49:39.758Z,2.47
2023-05-10T12:52:08.834Z,2.00
2023-05-10T12:54:36.123Z,1.92
2023-05-10T12:57:03.376Z,1.92
2023-05-10T12:59:30.616Z,2.20
2023-05-10T13:01:59.610Z,2.08
2023-05-10T13:04:27.244Z,1.65
2023-05-10T13:06:54.133Z,1.75
2023-05-10T13:09:21.950Z,1.60
2023-05-10T13:11:49.920Z,1.75
2023-05-10T13:14:17.273Z,2.65
2023-05-10T13:16:44.639Z,2.25
2023-05-10T13:19:12.822Z,2.03
2023-05-10T13:21:40.208Z,1.70
2023-05-10T13:24:08.824Z,2.03
2023-05-10T13:26:37.736Z,1.98
2023-05-10T13:29:05.087Z,1.90
2023-05-10T13:31:32.328Z,1.90
2023-05-10T13:33:59.625Z,1.90
2023-05-10T13:36:27.049Z,3.53
2023-05-10T13:38:54.431Z,2.30
2023-05-10T13:41:22.447Z,1.90
2023-05-10T13:43:50.781Z,1.90
2023-05-10T13:46:18.127Z,1.80
2023-05-10T13:48:45.424Z,1.52
2023-05-10T13:51:12.754Z,1.90
2023-05-10T13:53:39.521Z,2.10
2023-05-10T13:56:07.200Z,1.60
2023-05-10T13:58:34.518Z,2.25
2023-05-10T14:01:01.947Z,1.92
2023-05-10T14:03:29.236Z,2.55
2023-05-10T14:05:56.701Z,2.20
2023-05-10T14:08:24.107Z,2.17
2023-05-10T14:10:52.195Z,1.90
2023-05-10T14:13:19.467Z,1.92
2023-05-10T14:15:46.666Z,2.28
2023-05-10T14:18:13.935Z,1.70
2023-05-10T14:20:41.390Z,1.80
2023-05-10T14:23:10.480Z,2.03
2023-05-10T14:25:39.630Z,2.05
2023-05-10T14:28:07.004Z,2.88
2023-05-10T14:30:35.639Z,2.50
2023-05-10T14:33:04.369Z,2.10
2023-05-10T14:35:32.672Z,2.88
2023-05-10T14:38:00.147Z,1.60
2023-05-10T14:40:27.578Z,1.90
2023-05-10T14:42:54.938Z,2.00
2023-05-10T14:45:22.715Z,2.45
2023-05-10T14:47:50.923Z,2.40
2023-05-10T14:50:35.310Z,1.88
2023-05-10T14:53:04.022Z,1.90
2023-05-10T14:55:31.471Z,1.60
2023-05-10T14:57:59.773Z,1.85
2023-05-10T15:00:27.628Z,1.75
2023-05-10T15:02:55.434Z,1.70
2023-05-10T15:05:23.916Z,1.83
2023-05-10T15:07:51.816Z,2.13
2023-05-10T15:10:19.869Z,1.92
2023-05-10T15:12:47.174Z,2.40
2023-05-10T15:15:14.691Z,2.30
2023-05-10T15:17:42.181Z,2.08
2023-05-10T15:20:09.923Z,2.40
2023-05-10T15:22:37.181Z,1.88
2023-05-10T15:25:04.592Z,2.03
2023-05-10T15:27:31.812Z,1.90
2023-05-10T15:30:00.781Z,2.03
2023-05-10T15:32:28.343Z,2.38
2023-05-10T15:34:55.679Z,1.63
2023-05-10T15:37:24.804Z,2.05
2023-05-10T15:39:52.170Z,2.00
2023-05-10T15:42:19.809Z,2.30
2023-05-10T15:44:51.564Z,1.67
2023-05-10T15:47:19.027Z,2.03
2023-05-10T15:49:46.430Z,2.00
2023-05-10T15:52:13.733Z,1.77
2023-05-10T15:54:40.644Z,1.65
2023-05-10T15:57:08.594Z,2.20
2023-05-10T15:59:36.277Z,1.45
2023-05-10T16:02:04.902Z,1.80
2023-05-10T16:04:32.162Z,1.98
2023-05-10T16:06:59.363Z,1.80
2023-05-10T16:09:26.989Z,2.08
2023-05-10T16:11:54.622Z,1.90
2023-05-10T16:14:23.486Z,2.22
2023-05-10T16:16:51.861Z,2.38
2023-05-10T16:19:18.938Z,2.38
2023-05-10T16:21:46.400Z,2.20
2023-05-10T16:24:13.726Z,2.25
2023-05-10T16:26:41.415Z,2.13
2023-05-10T16:29:09.302Z,4.97
2023-05-10T16:31:36.761Z,2.25
2023-05-10T16:34:04.324Z,2.35
2023-05-10T16:36:32.085Z,2.58
2023-05-10T16:39:00.040Z,2.08
2023-05-10T16:41:27.237Z,1.80
2023-05-10T16:43:55.410Z,2.10
2023-05-10T16:46:22.799Z,1.77
2023-05-10T16:48:50.229Z,2.80
2023-05-10T16:51:17.816Z,1.98
2023-05-10T16:53:45.176Z,2.03
2023-05-10T16:56:12.803Z,1.98
2023-05-10T16:58:39.609Z,1.85
2023-05-10T17:01:07.777Z,1.77
2023-05-10T17:03:35.216Z,1.92
2023-05-10T17:06:02.939Z,2.00
2023-05-10T17:08:30.278Z,2.15
2023-05-10T17:10:57.510Z,3.13
2023-05-10T17:13:24.843Z,1.85
2023-05-10T17:15:52.152Z,2.00
2023-05-10T17:18:20.167Z,2.53
2023-05-10T17:20:47.612Z,2.10
2023-05-10T17:23:15.041Z,2.20
2023-05-10T17:25:42.608Z,1.98
2023-05-10T17:28:10.235Z,2.65
2023-05-10T17:30:37.716Z,1.90
2023-05-10T17:33:05.268Z,2.33
2023-05-10T17:35:32.805Z,2.20
2023-05-10T17:38:00.165Z,2.92
2023-05-10T17:40:27.538Z,1.95
2023-05-10T17:42:54.859Z,2.10
2023-05-10T17:45:22.257Z,2.10
2023-05-10T17:47:49.699Z,2.35
2023-05-10T17:50:17.066Z,1.67
2023-05-10T17:52:44.448Z,2.30
2023-05-10T17:55:13.104Z,2.20
2023-05-10T17:57:40.482Z,2.70
2023-05-10T18:00:09.613Z,3.53
2023-05-10T18:02:37.402Z,2.17
2023-05-10T18:05:05.635Z,2.28
2023-05-10T18:07:33.144Z,2.55
2023-05-10T18:10:01.525Z,2.85
2023-05-10T18:12:28.836Z,2.40
2023-05-10T18:14:56.061Z,2.72
2023-05-10T18:17:23.512Z,2.63
2023-05-10T18:19:50.985Z,2.13
2023-05-10T18:22:18.350Z,2.38
2023-05-10T18:24:47.404Z,2.10
2023-05-10T18:27:14.568Z,1.83
2023-05-10T18:29:41.804Z,2.72
2023-05-10T18:32:09.280Z,2.08
2023-05-10T18:34:36.609Z,2.53
2023-05-10T18:37:08.126Z,2.13
2023-05-10T18:39:36.692Z,2.70
2023-05-10T18:42:07.021Z,3.28
2023-05-10T18:44:34.175Z,3.53
2023-05-10T18:47:01.358Z,3.28
2023-05-10T18:49:29.796Z,4.53
2023-05-10T18:51:57.096Z,3.88
2023-05-10T18:54:27.317Z,4.15
2023-05-10T18:56:54.585Z,4.03
2023-05-10T18:59:22.167Z,3.70
2023-05-10T19:01:51.198Z,3.58
2023-05-10T19:04:18.808Z,2.95
2023-05-10T19:06:46.348Z,2.92
2023-05-10T19:09:13.817Z,3.58
2023-05-10T19:11:41.609Z,3.13
2023-05-10T19:14:08.974Z,2.90
2023-05-10T19:16:37.370Z,2.65
2023-05-10T19:19:05.030Z,3.00
2023-05-10T19:21:33.416Z,2.78
2023-05-10T19:24:01.953Z,3.58
2023-05-10T19:26:29.458Z,3.30
2023-05-10T19:28:58.097Z,4.05
2023-05-10T19:31:25.613Z,3.65
2023-05-10T19:33:54.277Z,4.53
2023-05-10T19:36:21.726Z,4.13
2023-05-10T19:38:49.454Z,5.43
2023-05-10T19:41:16.688Z,5.38
2023-05-10T19:43:43.839Z,5.75
2023-05-10T19:46:11.229Z,4.63
2023-05-10T19:48:39.459Z,5.20
2023-05-10T19:51:09.991Z,5.03
2023-05-10T19:53:37.680Z,4.57
2023-05-10T19:56:06.945Z,4.40
2023-05-10T19:58:34.783Z,4.65
2023-05-10T20:01:02.238Z,5.30
2023-05-10T20:03:29.715Z,5.40
2023-05-10T20:05:57.114Z,4.28
2023-05-10T20:08:25.293Z,4.72
2023-05-10T20:10:52.619Z,5.68
2023-05-10T20:13:20.082Z,4.40
2023-05-10T20:15:47.518Z,4.53
2023-05-10T20:18:14.738Z,3.55
2023-05-10T20:20:41.890Z,4.65
2023-05-10T20:23:09.030Z,3.65
2023-05-10T20:25:36.411Z,3.05
2023-05-10T20:28:04.475Z,2.55
2023-05-10T20:30:31.728Z,2.92
2023-05-10T20:32:59.029Z,3.17
2023-05-10T20:35:26.263Z,2.58
2023-05-10T20:37:53.806Z,2.72
2023-05-10T20:40:21.133Z,3.03
2023-05-10T20:42:50.090Z,2.58
2023-05-10T20:45:17.124Z,2.75
2023-05-10T20:47:44.522Z,3.03
2023-05-10T20:50:12.218Z,3.10
2023-05-10T20:52:39.572Z,2.42
2023-05-10T20:55:07.426Z,3.08
2023-05-10T20:57:34.545Z,3.80
2023-05-10T21:00:01.840Z,3.47
2023-05-10T21:02:29.410Z,3.95
2023-05-10T21:04:57.983Z,4.00
2023-05-10T21:07:25.935Z,4.18
2023-05-10T21:09:53.250Z,4.68
2023-05-10T21:12:20.575Z,4.82
2023-05-10T21:14:48.433Z,4.65
2023-05-10T21:17:16.947Z,4.43
2023-05-10T21:19:45.322Z,5.20
2023-05-10T21:22:12.460Z,4.45
2023-05-10T21:24:39.725Z,4.72
2023-05-10T21:27:08.000Z,4.15
2023-05-10T21:29:35.788Z,4.68
2023-05-10T21:32:03.228Z,3.90
2023-05-10T21:34:30.806Z,4.40
2023-05-10T21:36:58.077Z,4.22
2023-05-10T21:39:25.400Z,4.68
2023-05-10T21:41:52.976Z,3.85
2023-05-10T21:44:20.254Z,3.55
2023-05-10T21:46:47.409Z,3.90
2023-05-10T21:49:14.665Z,3.75
2023-05-10T21:51:41.835Z,3.47
2023-05-10T21:54:08.964Z,3.92
2023-05-10T21:56:35.679Z,3.65
2023-05-10T21:59:02.784Z,3.78
2023-05-10T22:01:29.485Z,3.97
2023-05-10T22:03:56.637Z,3.63
2023-05-10T22:06:23.904Z,3.92
2023-05-10T22:08:51.439Z,4.20
2023-05-10T22:11:18.750Z,4.05
2023-05-10T22:13:46.035Z,4.22
2023-05-10T22:16:13.382Z,4.70
2023-05-10T22:18:40.238Z,3.22
2023-05-10T22:21:10.123Z,4.03
2023-05-10T22:23:37.248Z,4.25
2023-05-10T22:26:05.071Z,3.72
2023-05-10T22:28:32.283Z,3.45
2023-05-10T22:30:59.595Z,3.83
2023-05-10T22:33:26.835Z,3.33
2023-05-10T22:35:54.084Z,3.53
2023-05-10T22:38:21.930Z,2.97
2023-05-10T22:40:49.279Z,2.67
2023-05-10T22:43:16.969Z,3.15
2023-05-10T22:45:44.541Z,3.08
2023-05-10T22:48:12.323Z,2.90
2023-05-10T22:50:39.558Z,3.20
2023-05-10T22:53:07.160Z,3.00
2023-05-10T22:55:34.627Z,2.67
2023-05-10T22:58:02.100Z,3.08
2023-05-10T23:00:28.858Z,2.40
2023-05-10T23:02:56.217Z,2.85
2023-05-10T23:05:23.542Z,2.78
2023-05-10T23:07:53.807Z,2.58
2023-05-10T23:10:21.503Z,2.88
2023-05-10T23:12:48.877Z,2.22
2023-05-10T23:15:16.093Z,2.47
2023-05-10T23:17:44.089Z,3.17
2023-05-10T23:20:11.825Z,3.17
2023-05-10T23:22:39.287Z,2.67
2023-05-10T23:25:07.432Z,2.83
2023-05-10T23:27:34.857Z,2.95
2023-05-10T23:30:02.320Z,2.88
2023-05-10T23:32:29.587Z,2.72
2023-05-10T23:34:56.871Z,2.65
2023-05-10T23:37:24.284Z,2.40
2023-05-10T23:39:52.577Z,2.35
2023-05-10T23:42:19.667Z,2.20
2023-05-10T23:44:47.320Z,2.53
2023-05-10T23:47:14.457Z,2.40
2023-05-10T23:49:42.661Z,2.45
2023-05-10T23:52:10.045Z,3.05
2023-05-10T23:54:37.422Z,2.45
2023-05-10T23:57:04.658Z,2.55
2023-05-10T23:59:31.676Z,2.40
